createdAt,value
2022-12-01T00:01:43.345Z,103035.09
2022-12-01T00:04:12.147Z,103024.50
2022-12-01T00:06:40.724Z,103030.72
2022-12-01T00:09:28.706Z,103033.31
2022-12-01T00:11:58.788Z,103025.31
2022-12-01T00:14:27.496Z,103028.03
2022-12-01T00:16:56.217Z,103028.88
2022-12-01T00:19:26.314Z,103028.09
2022-12-01T00:21:55.078Z,103028.09
2022-12-01T00:24:24.771Z,103029.84
2022-12-01T00:26:53.417Z,103032.47
2022-12-01T00:29:23.423Z,103023.72
2022-12-01T00:31:52.057Z,103025.47
2022-12-01T00:34:24.689Z,103023.66
2022-12-01T00:36:53.606Z,103018.34
2022-12-01T00:39:22.714Z,103021.88
2022-12-01T00:41:51.217Z,103018.34
2022-12-01T00:44:19.748Z,103017.41
2022-12-01T00:46:50.127Z,103021.00
2022-12-01T00:49:18.759Z,103015.72
2022-12-01T00:51:47.713Z,103016.59
2022-12-01T00:54:16.339Z,103017.50
2022-12-01T00:56:44.816Z,103016.63
2022-12-01T00:59:13.615Z,103025.41
2022-12-01T01:01:42.467Z,103018.38
2022-12-01T01:04:12.591Z,103014.00
2022-12-01T01:06:43.662Z,103024.56
2022-12-01T01:09:12.216Z,103023.63
2022-12-01T01:11:41.025Z,103026.34
2022-12-01T01:14:10.412Z,103026.31
2022-12-01T01:16:39.240Z,103024.56
2022-12-01T01:19:08.206Z,103017.50
2022-12-01T01:21:38.272Z,103019.28
2022-12-01T01:24:07.823Z,103016.69
2022-12-01T01:26:37.188Z,103020.22
2022-12-01T01:29:07.900Z,103012.28
2022-12-01T01:31:36.994Z,103017.56
2022-12-01T01:34:05.732Z,103018.41
2022-12-01T01:36:34.534Z,103014.03
2022-12-01T01:39:05.632Z,103014.97
2022-12-01T01:41:34.001Z,103020.19
2022-12-01T01:44:04.205Z,103019.34
2022-12-01T01:46:34.123Z,103013.19
2022-12-01T01:49:08.110Z,103016.69
2022-12-01T01:51:42.476Z,103005.28
2022-12-01T01:54:16.266Z,103007.06
2022-12-01T01:56:46.044Z,103006.19
2022-12-01T01:59:17.736Z,102998.25
2022-12-01T02:01:47.506Z,103000.03
2022-12-01T02:04:16.836Z,103001.78
2022-12-01T02:06:45.395Z,102999.16
2022-12-01T02:09:16.352Z,103007.94
2022-12-01T02:12:02.102Z,103008.78
2022-12-01T02:14:51.282Z,102992.97
2022-12-01T02:17:30.650Z,102998.22
2022-12-01T02:20:46.888Z,102995.59
2022-12-01T02:23:51.895Z,102998.22
2022-12-01T02:26:41.115Z,102997.38
2022-12-01T02:29:48.514Z,102993.84
2022-12-01T02:32:22.767Z,102996.50
2022-12-01T02:34:57.495Z,102993.84
2022-12-01T02:37:33.288Z,102996.50
2022-12-01T02:40:12.218Z,102989.47
2022-12-01T02:42:54.613Z,102993.84
2022-12-01T02:45:36.452Z,102987.69
2022-12-01T02:48:11.600Z,102997.38
2022-12-01T02:50:42.282Z,102989.47
2022-12-01T02:53:14.780Z,102990.38
2022-12-01T02:55:51.866Z,102982.44
2022-12-01T02:58:20.725Z,102987.69
2022-12-01T03:01:08.127Z,102986.81
2022-12-01T03:03:58.925Z,102981.53
2022-12-01T03:06:38.380Z,102978.00
2022-12-01T03:09:17.612Z,102979.78
2022-12-01T03:11:52.451Z,102985.06
2022-12-01T03:14:32.708Z,102978.00
2022-12-01T03:17:09.268Z,102985.09
2022-12-01T03:19:43.927Z,102993.00
2022-12-01T03:22:16.299Z,102994.75
2022-12-01T03:24:49.554Z,102989.47
2022-12-01T03:27:23.760Z,102985.13
2022-12-01T03:29:55.982Z,102989.47
2022-12-01T03:32:31.603Z,102983.31
2022-12-01T03:35:09.166Z,102984.22
2022-12-01T03:37:43.741Z,102984.97
2022-12-01T03:40:18.080Z,102983.19
2022-12-01T03:42:51.361Z,102984.09
2022-12-01T03:45:28.264Z,102978.72
2022-12-01T03:47:57.012Z,102974.34
2022-12-01T03:50:33.148Z,102981.34
2022-12-01T03:53:11.586Z,102978.78
2022-12-01T03:55:43.963Z,102981.44
2022-12-01T03:58:16.278Z,102971.81
2022-12-01T04:00:50.519Z,102976.16
2022-12-01T04:03:22.084Z,102976.06
2022-12-01T04:05:54.536Z,102973.47
2022-12-01T04:08:26.697Z,102969.97
2022-12-01T04:10:58.281Z,102978.78
2022-12-01T04:13:26.976Z,102980.50
2022-12-01T04:15:56.837Z,102992.03
2022-12-01T04:18:25.944Z,102987.63
2022-12-01T04:20:57.505Z,102992.09
2022-12-01T04:23:44.088Z,102985.94
2022-12-01T04:26:15.889Z,102989.50
2022-12-01T04:28:45.103Z,102992.13
2022-12-01T04:31:14.117Z,102986.84
2022-12-01T04:33:43.118Z,102984.22
2022-12-01T04:36:13.617Z,102978.09
2022-12-01T04:38:45.063Z,102982.47
2022-12-01T04:41:15.001Z,102975.44
2022-12-01T04:43:44.857Z,102973.66
2022-12-01T04:46:16.843Z,102972.78
2022-12-01T04:48:45.997Z,102978.03
2022-12-01T04:51:19.617Z,102978.94
2022-12-01T04:53:49.268Z,102982.47
2022-12-01T04:56:19.121Z,102987.72
2022-12-01T04:58:48.457Z,102993.00
2022-12-01T05:01:19.599Z,102994.75
2022-12-01T05:03:50.825Z,102987.72
2022-12-01T05:06:23.462Z,102992.13
2022-12-01T05:08:53.599Z,103000.03
2022-12-01T05:11:23.002Z,102996.53
2022-12-01T05:13:52.378Z,102995.66
2022-12-01T05:16:23.854Z,103000.06
2022-12-01T05:19:16.033Z,103009.72
2022-12-01T05:21:49.562Z,103005.31
2022-12-01T05:24:19.423Z,103018.47
2022-12-01T05:26:48.262Z,103019.34
2022-12-01T05:29:17.524Z,103012.31
2022-12-01T05:31:48.145Z,103007.06
2022-12-01T05:34:17.221Z,103014.09
2022-12-01T05:36:46.319Z,103019.38
2022-12-01T05:39:16.862Z,103011.47
2022-12-01T05:41:48.103Z,103012.34
2022-12-01T05:44:17.159Z,103009.69
2022-12-01T05:46:46.040Z,103007.06
2022-12-01T05:49:15.176Z,103010.56
2022-12-01T05:51:44.868Z,103006.16
2022-12-01T05:54:17.244Z,103007.03
2022-12-01T05:56:47.806Z,103006.13
2022-12-01T05:59:25.542Z,103005.28
2022-12-01T06:01:54.533Z,102999.06
2022-12-01T06:04:25.035Z,103003.44
2022-12-01T06:06:55.222Z,102996.38
2022-12-01T06:09:29.200Z,103002.53
2022-12-01T06:11:59.589Z,103005.94
2022-12-01T06:14:28.500Z,103002.25
2022-12-01T06:16:57.450Z,103013.41
2022-12-01T06:19:26.517Z,103014.16
2022-12-01T06:21:55.588Z,103022.63
2022-12-01T06:24:25.280Z,103019.03
2022-12-01T06:26:54.250Z,103018.84
2022-12-01T06:29:24.583Z,103023.22
2022-12-01T06:31:54.475Z,103017.19
2022-12-01T06:34:23.431Z,103020.88
2022-12-01T06:36:52.269Z,103021.47
2022-12-01T06:39:21.360Z,103026.66
2022-12-01T06:41:50.322Z,103029.19
2022-12-01T06:44:19.435Z,103031.94
2022-12-01T06:46:53.677Z,103023.06
2022-12-01T06:49:24.148Z,103032.53
2022-12-01T06:54:40.133Z,103030.69
2022-12-01T06:57:16.730Z,103034.63
2022-12-01T06:59:58.113Z,103026.56
2022-12-01T07:02:30.003Z,103037.78
2022-12-01T07:05:02.546Z,103037.78
2022-12-01T07:07:32.131Z,103035.53
2022-12-01T07:10:03.583Z,103032.91
2022-12-01T07:12:32.367Z,103028.50
2022-12-01T07:15:03.686Z,103026.97
2022-12-01T07:17:34.343Z,103034.88
2022-12-01T07:20:04.346Z,103027.09
2022-12-01T07:22:33.388Z,103033.19
2022-12-01T07:25:02.752Z,103029.06
2022-12-01T07:27:34.702Z,103035.88
2022-12-01T07:30:04.689Z,103036.63
2022-12-01T07:32:38.309Z,103040.19
2022-12-01T07:35:08.240Z,103038.22
2022-12-01T07:37:37.172Z,103030.53
2022-12-01T07:40:07.140Z,103033.94
2022-12-01T07:42:36.179Z,103025.16
2022-12-01T07:45:08.285Z,103025.06
2022-12-01T07:47:39.169Z,103025.84
2022-12-01T07:50:09.263Z,103019.91
2022-12-01T07:52:38.078Z,103023.25
2022-12-01T07:55:07.862Z,103024.00
2022-12-01T07:57:36.880Z,103020.34
2022-12-01T08:00:11.442Z,103030.78
2022-12-01T08:02:46.698Z,103016.00
2022-12-01T08:05:15.786Z,103022.03
2022-12-01T08:07:44.666Z,103026.31
2022-12-01T08:10:16.619Z,103029.81
2022-12-01T08:12:48.618Z,103025.44
2022-12-01T08:15:20.865Z,103022.94
2022-12-01T08:17:51.291Z,103021.13
2022-12-01T08:20:24.222Z,103021.22
2022-12-01T08:22:53.303Z,103031.59
2022-12-01T08:25:23.543Z,103023.72
2022-12-01T08:28:01.544Z,103015.84
2022-12-01T08:30:30.684Z,103015.88
2022-12-01T08:33:01.104Z,103020.63
2022-12-01T08:35:30.189Z,103012.84
2022-12-01T08:38:02.241Z,103013.97
2022-12-01T08:40:36.723Z,103002.69
2022-12-01T08:43:05.770Z,103008.06
2022-12-01T08:45:34.742Z,103009.91
2022-12-01T08:48:05.305Z,103012.63
2022-12-01T08:50:34.271Z,103001.25
2022-12-01T08:53:06.159Z,103000.41
2022-12-01T08:55:37.941Z,102995.19
2022-12-01T08:58:07.021Z,102997.81
2022-12-01T09:00:35.862Z,102998.75
2022-12-01T09:03:06.399Z,102990.88
2022-12-01T09:05:35.529Z,102994.47
2022-12-01T09:08:21.549Z,102994.44
2022-12-01T09:10:53.438Z,102987.34
2022-12-01T09:13:28.361Z,102989.19
2022-12-01T09:15:58.624Z,102998.00
2022-12-01T09:18:29.605Z,102994.44
2022-12-01T09:20:59.158Z,102990.97
2022-12-01T09:23:28.487Z,102984.78
2022-12-01T09:26:01.939Z,102991.78
2022-12-01T09:28:30.785Z,102983.00
2022-12-01T09:31:05.437Z,102985.59
2022-12-01T09:33:36.388Z,102985.66
2022-12-01T09:36:06.991Z,102992.72
2022-12-01T09:38:37.120Z,102980.53
2022-12-01T09:41:09.561Z,102965.56
2022-12-01T09:43:47.413Z,102962.91
2022-12-01T09:46:21.124Z,102950.56
2022-12-01T09:48:54.229Z,102957.59
2022-12-01T09:51:24.881Z,102955.84
2022-12-01T09:53:56.892Z,102962.78
2022-12-01T09:56:29.350Z,102957.31
2022-12-01T09:59:04.198Z,102956.28
2022-12-01T10:01:37.009Z,102963.31
2022-12-01T10:04:16.722Z,102958.03
2022-12-01T10:06:52.724Z,102955.50
2022-12-01T10:09:25.767Z,102951.97
2022-12-01T10:12:02.049Z,102947.63
2022-12-01T10:14:35.502Z,102951.06
2022-12-01T10:17:15.999Z,102944.22
2022-12-01T10:19:55.022Z,102931.00
2022-12-01T10:22:55.478Z,102933.59
2022-12-01T10:25:27.184Z,102932.81
2022-12-01T10:28:14.247Z,102942.34
2022-12-01T10:30:57.542Z,102936.19
2022-12-01T10:33:28.405Z,102952.91
2022-12-01T10:36:02.023Z,102935.41
2022-12-01T10:38:34.047Z,102941.66
2022-12-01T10:41:05.524Z,102932.09
2022-12-01T10:43:38.664Z,102931.16
2022-12-01T10:46:18.458Z,102922.41
2022-12-01T10:48:58.850Z,102928.50
2022-12-01T10:51:29.968Z,102924.06
2022-12-01T10:54:20.299Z,102935.44
2022-12-01T10:56:57.145Z,102933.63
2022-12-01T10:59:32.788Z,102932.03
2022-12-01T11:02:06.366Z,102936.38
2022-12-01T11:04:46.425Z,102925.88
2022-12-01T11:07:23.560Z,102913.59
2022-12-01T11:10:20.310Z,102925.84
2022-12-01T11:12:58.400Z,102931.00
2022-12-01T11:15:29.780Z,102934.59
2022-12-01T11:18:02.287Z,102940.53
2022-12-01T11:20:37.032Z,102932.72
2022-12-01T11:23:36.640Z,102932.66
2022-12-01T11:26:13.245Z,102931.84
2022-12-01T11:28:52.222Z,102931.97
2022-12-01T11:31:29.236Z,102924.97
2022-12-01T11:34:02.925Z,102918.88
2022-12-01T11:36:44.052Z,102923.28
2022-12-01T11:39:26.946Z,102920.75
2022-12-01T11:41:58.189Z,102908.50
2022-12-01T11:47:24.347Z,102915.44
2022-12-01T11:49:55.790Z,102913.75
2022-12-01T11:52:31.707Z,102906.75
2022-12-01T11:55:10.059Z,102904.97
2022-12-01T11:57:43.152Z,102902.38
2022-12-01T12:00:15.782Z,102893.63
2022-12-01T12:03:02.524Z,102899.78
2022-12-01T12:06:17.775Z,102897.19
2022-12-01T12:09:01.936Z,102897.97
2022-12-01T12:11:46.337Z,102898.78
2022-12-01T12:14:31.083Z,102893.44
2022-12-01T12:17:44.892Z,102890.66
2022-12-01T12:20:26.184Z,102886.06
2022-12-01T12:23:19.731Z,102886.94
2022-12-01T12:26:01.227Z,102884.22
2022-12-01T12:29:00.025Z,102881.72
2022-12-01T12:31:44.528Z,102877.31
2022-12-01T12:34:36.162Z,102884.22
2022-12-01T12:37:30.560Z,102888.47
2022-12-01T12:40:26.343Z,102894.38
2022-12-01T12:43:15.668Z,102889.91
2022-12-01T12:46:02.431Z,102894.91
2022-12-01T12:49:18.627Z,102894.97
2022-12-01T12:51:55.095Z,102892.16
2022-12-01T12:54:38.464Z,102895.53
2022-12-01T12:57:16.923Z,102898.31
2022-12-01T12:59:54.150Z,102896.53
2022-12-01T13:02:30.308Z,102907.03
2022-12-01T13:05:07.289Z,102897.66
2022-12-01T13:07:44.484Z,102894.78
2022-12-01T13:10:28.789Z,102900.00
2022-12-01T13:13:04.930Z,102894.69
2022-12-01T13:15:40.658Z,102891.13
2022-12-01T13:18:24.581Z,102891.81
2022-12-01T13:20:58.834Z,102888.34
2022-12-01T13:23:28.849Z,102890.03
2022-12-01T13:26:14.629Z,102885.66
2022-12-01T13:28:47.981Z,102883.13
2022-12-01T13:31:18.598Z,102887.28
2022-12-01T13:34:01.360Z,102884.56
2022-12-01T13:36:49.725Z,102883.78
2022-12-01T13:39:22.278Z,102890.59
2022-12-01T13:42:09.303Z,102888.75
2022-12-01T13:44:45.181Z,102887.53
2022-12-01T13:47:54.784Z,102882.78
2022-12-01T13:51:02.005Z,102889.59
2022-12-01T13:53:33.806Z,102885.44
2022-12-01T13:56:24.440Z,102882.22
2022-12-01T13:58:56.944Z,102879.00
2022-12-01T14:01:50.264Z,102879.81
2022-12-01T14:04:30.245Z,102886.91
2022-12-01T14:07:30.546Z,102876.00
2022-12-01T14:10:09.963Z,102880.44
2022-12-01T14:12:44.682Z,102880.94
2022-12-01T14:15:36.461Z,102886.28
2022-12-01T14:18:10.325Z,102876.34
2022-12-01T14:20:50.442Z,102871.72
2022-12-01T14:23:29.231Z,102869.88
2022-12-01T14:26:01.324Z,102881.06
2022-12-01T14:29:04.911Z,102869.00
2022-12-01T14:32:09.846Z,102886.09
2022-12-01T14:34:39.853Z,102877.28
2022-12-01T14:37:16.762Z,102876.53
2022-12-01T14:39:52.027Z,102884.16
2022-12-01T14:42:49.670Z,102874.50
2022-12-01T14:45:26.544Z,102871.56
2022-12-01T14:48:03.441Z,102880.34
2022-12-01T14:50:46.804Z,102883.94
2022-12-01T14:53:24.151Z,102885.69
2022-12-01T14:56:00.987Z,102877.06
2022-12-01T14:58:33.922Z,102872.72
2022-12-01T15:01:11.356Z,102877.09
2022-12-01T15:03:45.746Z,102881.56
2022-12-01T15:06:21.441Z,102884.91
2022-12-01T15:12:09.315Z,102878.75
2022-12-01T15:14:48.926Z,102873.34
2022-12-01T15:17:32.349Z,102880.22
2022-12-01T15:20:03.218Z,102880.31
2022-12-01T15:22:37.759Z,102871.53
2022-12-01T15:25:16.841Z,102882.16
2022-12-01T15:28:06.919Z,102878.59
2022-12-01T15:30:50.200Z,102882.91
2022-12-01T15:33:27.311Z,102882.72
2022-12-01T15:35:58.707Z,102875.81
2022-12-01T15:38:34.467Z,102879.13
2022-12-01T15:44:01.008Z,102884.00
2022-12-01T15:46:39.200Z,102898.81
2022-12-01T15:49:28.108Z,102898.09
2022-12-01T15:52:08.203Z,102898.34
2022-12-01T15:54:42.144Z,102895.75
2022-12-01T15:57:20.448Z,102897.81
2022-12-01T15:59:59.042Z,102893.13
2022-12-01T16:02:34.899Z,102887.22
2022-12-01T16:05:17.041Z,102882.09
2022-12-01T16:08:12.643Z,102889.91
2022-12-01T16:10:43.243Z,102900.25
2022-12-01T16:13:45.763Z,102900.25
2022-12-01T16:16:45.158Z,102899.16
2022-12-01T16:19:30.790Z,102905.38
2022-12-01T16:22:26.068Z,102899.25
2022-12-01T16:24:57.410Z,102907.84
2022-12-01T16:27:34.128Z,102901.00
2022-12-01T16:30:25.849Z,102896.38
2022-12-01T16:33:18.071Z,102899.78
2022-12-01T16:35:55.890Z,102908.38
2022-12-01T16:38:32.973Z,102897.13
2022-12-01T16:41:07.408Z,102901.63
2022-12-01T16:43:50.347Z,102900.41
2022-12-01T16:46:37.305Z,102909.13
2022-12-01T16:49:10.569Z,102913.47
2022-12-01T16:51:56.889Z,102911.69
2022-12-01T16:54:31.284Z,102907.06
2022-12-01T16:57:23.102Z,102921.97
2022-12-01T16:59:55.054Z,102915.09
2022-12-01T17:02:28.457Z,102908.03
2022-12-01T17:05:10.895Z,102914.88
2022-12-01T17:07:46.459Z,102913.13
2022-12-01T17:10:20.259Z,102909.34
2022-12-01T17:12:50.998Z,102913.06
2022-12-01T17:15:23.316Z,102911.91
2022-12-01T17:17:54.799Z,102909.06
2022-12-01T17:20:32.566Z,102897.81
2022-12-01T17:23:05.558Z,102910.81
2022-12-01T17:25:37.997Z,102899.38
2022-12-01T17:28:11.033Z,102902.25
2022-12-01T17:30:43.676Z,102907.16
2022-12-01T17:33:17.539Z,102901.13
2022-12-01T17:35:52.151Z,102899.28
2022-12-01T17:38:26.542Z,102893.19
2022-12-01T17:41:09.774Z,102903.63
2022-12-01T17:43:43.363Z,102895.63
2022-12-01T17:46:14.170Z,102899.06
2022-12-01T17:48:51.278Z,102905.00
2022-12-01T17:51:32.541Z,102899.78
2022-12-01T17:54:03.358Z,102907.69
2022-12-01T17:56:34.206Z,102905.06
2022-12-01T17:59:05.486Z,102918.09
2022-12-01T18:01:34.462Z,102903.06
2022-12-01T18:04:06.607Z,102908.34
2022-12-01T18:06:40.034Z,102908.28
2022-12-01T18:09:12.108Z,102900.34
2022-12-01T18:11:40.948Z,102906.66
2022-12-01T18:14:12.559Z,102913.59
2022-12-01T18:16:46.828Z,102900.25
2022-12-01T18:19:16.381Z,102909.63
2022-12-01T18:21:50.906Z,102908.63
2022-12-01T18:24:23.321Z,102902.34
2022-12-01T18:26:57.688Z,102904.22
2022-12-01T18:29:28.954Z,102897.41
2022-12-01T18:32:01.957Z,102894.47
2022-12-01T18:34:32.696Z,102892.59
2022-12-01T18:37:06.414Z,102894.56
2022-12-01T18:39:39.485Z,102896.84
2022-12-01T18:42:12.479Z,102899.41
2022-12-01T18:44:42.740Z,102902.06
2022-12-01T18:47:12.395Z,102902.28
2022-12-01T18:49:41.380Z,102901.34
2022-12-01T18:52:15.838Z,102905.59
2022-12-01T18:54:51.691Z,102911.47
2022-12-01T18:57:26.716Z,102907.16
2022-12-01T18:59:55.798Z,102901.59
2022-12-01T19:02:25.253Z,102904.19
2022-12-01T19:05:06.032Z,102905.69
2022-12-01T19:07:37.704Z,102909.31
2022-12-01T19:10:11.256Z,102911.00
2022-12-01T19:12:42.920Z,102915.44
2022-12-01T19:15:15.778Z,102910.00
2022-12-01T19:17:49.276Z,102914.47
2022-12-01T19:20:23.933Z,102918.63
2022-12-01T19:22:56.014Z,102913.25
2022-12-01T19:25:25.022Z,102921.56
2022-12-01T19:27:55.816Z,102922.63
2022-12-01T19:30:24.649Z,102924.19
2022-12-01T19:32:57.920Z,102921.34
2022-12-01T19:35:28.663Z,102932.66
2022-12-01T19:38:09.691Z,102942.03
2022-12-01T19:40:54.352Z,102932.66
2022-12-01T19:43:41.342Z,102940.22
2022-12-01T19:46:15.187Z,102950.75
2022-12-01T19:48:48.842Z,102942.84
2022-12-01T19:51:21.764Z,102949.78
2022-12-01T19:54:02.089Z,102940.16
2022-12-01T19:56:34.629Z,102943.50
2022-12-01T19:59:08.100Z,102940.75
2022-12-01T20:01:45.782Z,102940.50
2022-12-01T20:04:15.064Z,102935.53
2022-12-01T20:06:52.097Z,102941.50
2022-12-01T20:09:27.485Z,102938.53
2022-12-01T20:11:59.473Z,102941.38
2022-12-01T20:14:31.322Z,102944.09
2022-12-01T20:17:11.704Z,102934.41
2022-12-01T20:19:45.746Z,102939.53
2022-12-01T20:22:20.833Z,102952.19
2022-12-01T20:24:53.351Z,102948.63
2022-12-01T20:27:25.159Z,102951.31
2022-12-01T20:29:58.216Z,102946.03
2022-12-01T20:32:29.258Z,102930.31
2022-12-01T20:35:10.057Z,102941.31
2022-12-01T20:37:45.977Z,102925.09
2022-12-01T20:40:30.318Z,102923.63
2022-12-01T20:43:01.164Z,102930.91
2022-12-01T20:45:33.354Z,102922.50
2022-12-01T20:48:08.298Z,102937.78
2022-12-01T20:50:40.450Z,102922.84
2022-12-01T20:53:12.545Z,102944.63
2022-12-01T20:55:49.226Z,102943.19
2022-12-01T20:58:26.059Z,102948.09
2022-12-01T21:00:56.244Z,102954.00
2022-12-01T21:03:25.141Z,102951.38
2022-12-01T21:05:59.585Z,102944.84
2022-12-01T21:08:31.427Z,102935.94
2022-12-01T21:11:11.559Z,102950.81
2022-12-01T21:13:53.349Z,102943.19
2022-12-01T21:16:33.700Z,102942.97
2022-12-01T21:19:14.167Z,102948.28
2022-12-01T21:21:46.161Z,102942.72
2022-12-01T21:24:17.378Z,102937.44
2022-12-01T21:26:56.057Z,102938.63
2022-12-01T21:29:45.482Z,102935.72
2022-12-01T21:32:18.329Z,102941.19
2022-12-01T21:34:47.751Z,102932.03
2022-12-01T21:37:23.516Z,102934.91
2022-12-01T21:40:01.387Z,102933.03
2022-12-01T21:42:33.518Z,102928.56
2022-12-01T21:45:14.558Z,102927.69
2022-12-01T21:47:46.665Z,102926.31
2022-12-01T21:50:25.057Z,102922.78
2022-12-01T21:52:57.466Z,102926.03
2022-12-01T21:55:38.602Z,102930.97
2022-12-01T21:58:30.582Z,102918.66
2022-12-01T22:01:10.059Z,102923.78
2022-12-01T22:03:44.943Z,102921.81
2022-12-01T22:06:31.305Z,102924.03
2022-12-01T22:09:16.223Z,102917.19
2022-12-01T22:11:52.086Z,102925.06
2022-12-01T22:14:32.077Z,102917.81
2022-12-01T22:17:15.664Z,102921.50
2022-12-01T22:19:49.149Z,102923.63
2022-12-01T22:22:29.659Z,102924.06
2022-12-01T22:25:20.943Z,102915.50
2022-12-01T22:27:55.681Z,102922.81
2022-12-01T22:30:27.208Z,102925.31
2022-12-01T22:32:57.622Z,102921.13
2022-12-01T22:35:36.065Z,102916.66
2022-12-01T22:38:39.361Z,102910.47
2022-12-01T22:41:19.883Z,102901.88
2022-12-01T22:43:50.367Z,102910.53
2022-12-01T22:46:32.714Z,102915.88
2022-12-01T22:49:19.587Z,102915.53
2022-12-01T22:51:53.560Z,102910.94
2022-12-01T22:54:51.551Z,102904.94
2022-12-01T22:57:36.308Z,102913.13
2022-12-01T23:00:18.625Z,102909.50
2022-12-01T23:02:50.174Z,102905.94
2022-12-01T23:05:29.026Z,102910.66
2022-12-01T23:07:58.877Z,102906.94
2022-12-01T23:10:31.881Z,102898.75
2022-12-01T23:13:03.063Z,102903.28
2022-12-01T23:15:35.120Z,102906.97
2022-12-01T23:18:14.089Z,102901.69
2022-12-01T23:20:44.319Z,102901.16
2022-12-01T23:23:16.012Z,102897.38
2022-12-01T23:25:45.994Z,102894.06
2022-12-01T23:28:15.111Z,102890.44
2022-12-01T23:30:46.042Z,102886.47
2022-12-01T23:33:20.635Z,102889.50
2022-12-01T23:35:53.528Z,102890.25
2022-12-01T23:38:24.727Z,102883.50
2022-12-01T23:40:54.547Z,102881.78
2022-12-01T23:43:25.835Z,102883.44
2022-12-01T23:46:04.218Z,102881.19
2022-12-01T23:48:37.761Z,102882.25
2022-12-01T23:51:12.879Z,102881.13
2022-12-01T23:53:42.089Z,102889.56
2022-12-01T23:56:15.024Z,102879.94
2022-12-01T23:58:45.161Z,102884.72
